createdAt,value
2018-10-12T00:00:55.866Z,95.10
2018-10-12T00:03:23.177Z,95.00
2018-10-12T00:05:51.344Z,95.00
2018-10-12T00:08:18.569Z,95.00
2018-10-12T00:10:45.836Z,95.10
2018-10-12T00:13:13.048Z,95.00
2018-10-12T00:15:40.236Z,95.10
2018-10-12T00:18:07.439Z,95.00
2018-10-12T00:20:34.706Z,94.90
2018-10-12T00:23:01.879Z,94.90
2018-10-12T00:25:29.132Z,94.90
2018-10-12T00:27:56.361Z,94.90
2018-10-12T00:30:23.551Z,94.90
2018-10-12T00:32:50.804Z,95.00
2018-10-12T00:35:18.018Z,94.90
2018-10-12T00:37:45.208Z,94.90
2018-10-12T00:40:12.437Z,94.80
2018-10-12T00:42:39.727Z,94.90
2018-10-12T00:45:06.925Z,94.80
2018-10-12T00:47:34.335Z,94.70
2018-10-12T00:50:01.530Z,94.70
2018-10-12T00:52:28.728Z,94.60
2018-10-12T00:54:56.185Z,94.50
2018-10-12T00:57:23.348Z,94.50
2018-10-12T00:59:50.549Z,94.40
2018-10-12T01:02:17.813Z,94.30
2018-10-12T01:04:45.057Z,94.20
2018-10-12T01:07:12.544Z,94.20
2018-10-12T01:09:39.816Z,94.30
2018-10-12T01:12:19.489Z,94.30
2018-10-12T01:14:46.697Z,94.20
2018-10-12T01:17:13.925Z,94.20
2018-10-12T01:19:41.238Z,94.20
2018-10-12T01:22:08.585Z,94.10
2018-10-12T01:24:35.798Z,94.10
2018-10-12T01:27:03.062Z,94.20
2018-10-12T01:29:30.297Z,94.20
2018-10-12T01:31:57.557Z,94.20
2018-10-12T01:34:24.754Z,94.10
2018-10-12T01:36:51.993Z,94.30
2018-10-12T01:39:19.169Z,94.40
2018-10-12T01:41:46.415Z,94.50
2018-10-12T01:44:13.684Z,94.70
2018-10-12T01:46:40.898Z,95.10
2018-10-12T01:49:08.081Z,95.00
2018-10-12T01:51:35.330Z,94.80
2018-10-12T01:54:02.614Z,94.90
2018-10-12T01:56:29.821Z,95.00
2018-10-12T01:58:57.116Z,94.80
2018-10-12T02:01:24.334Z,94.80
2018-10-12T02:03:51.493Z,95.10
2018-10-12T02:06:18.800Z,94.80
2018-10-12T02:08:46.019Z,95.10
2018-10-12T02:11:13.230Z,95.10
2018-10-12T02:13:40.441Z,95.00
2018-10-12T02:16:07.645Z,95.50
2018-10-12T02:18:34.900Z,95.10
2018-10-12T02:21:02.121Z,95.30
2018-10-12T02:23:29.349Z,95.20
2018-10-12T02:25:56.668Z,95.20
2018-10-12T02:28:23.885Z,95.40
2018-10-12T02:30:51.063Z,95.20
2018-10-12T02:33:18.282Z,95.10
2018-10-12T02:35:45.521Z,95.20
2018-10-12T02:38:12.701Z,95.20
2018-10-12T02:40:39.912Z,95.10
2018-10-12T02:43:07.155Z,95.00
2018-10-12T02:45:34.477Z,94.90
2018-10-12T02:48:01.803Z,94.90
2018-10-12T02:50:28.981Z,95.00
2018-10-12T02:52:56.253Z,95.00
2018-10-12T02:55:23.522Z,95.00
2018-10-12T02:57:50.766Z,95.10
2018-10-12T03:00:17.952Z,95.10
2018-10-12T03:02:45.110Z,95.30
2018-10-12T03:05:12.471Z,95.30
2018-10-12T03:07:39.693Z,95.30
2018-10-12T03:10:06.903Z,95.40
2018-10-12T03:12:34.157Z,95.50
2018-10-12T03:15:01.433Z,95.60
2018-10-12T03:17:28.634Z,95.90
2018-10-12T03:19:55.830Z,95.80
2018-10-12T03:22:23.030Z,96.00
2018-10-12T03:24:50.283Z,96.00
2018-10-12T03:27:17.513Z,96.00
2018-10-12T03:29:44.776Z,96.00
2018-10-12T03:32:11.993Z,96.10
2018-10-12T03:34:39.205Z,96.20
2018-10-12T03:37:06.451Z,96.30
2018-10-12T03:39:33.636Z,96.40
2018-10-12T03:42:00.877Z,96.40
2018-10-12T03:44:28.153Z,96.40
2018-10-12T03:46:55.397Z,96.50
2018-10-12T03:49:22.640Z,96.70
2018-10-12T03:51:49.958Z,96.80
2018-10-12T03:54:17.144Z,96.80
2018-10-12T03:56:44.361Z,96.90
2018-10-12T03:59:11.590Z,97.00
2018-10-12T04:01:38.813Z,97.00
2018-10-12T04:04:06.027Z,96.90
2018-10-12T04:06:33.301Z,96.90
2018-10-12T04:09:00.565Z,96.90
2018-10-12T04:11:27.769Z,96.90
2018-10-12T04:13:54.987Z,96.80
2018-10-12T04:16:22.172Z,96.90
2018-10-12T04:18:49.409Z,96.80
2018-10-12T04:21:17.838Z,96.60
2018-10-12T04:23:45.070Z,96.80
2018-10-12T04:26:12.306Z,96.80
2018-10-12T04:28:39.481Z,96.80
2018-10-12T04:31:06.705Z,96.80
2018-10-12T04:33:33.926Z,96.90
2018-10-12T04:36:01.157Z,96.90
2018-10-12T04:39:42.549Z,97.00
2018-10-12T04:42:09.810Z,97.10
2018-10-12T04:44:37.034Z,97.30
2018-10-12T04:47:04.333Z,97.40
2018-10-12T04:49:31.712Z,97.40
2018-10-12T04:51:59.458Z,97.50
2018-10-12T04:54:27.145Z,97.60
2018-10-12T04:56:54.452Z,97.70
2018-10-12T04:59:21.812Z,98.10
2018-10-12T05:01:49.106Z,98.10
2018-10-12T05:04:16.333Z,97.90
2018-10-12T05:06:43.549Z,98.10
2018-10-12T05:09:11.879Z,98.10
2018-10-12T05:11:39.353Z,98.30
2018-10-12T05:14:06.709Z,98.50
2018-10-12T05:16:34.238Z,98.60
2018-10-12T05:19:01.619Z,98.60
2018-10-12T05:21:28.925Z,98.60
2018-10-12T05:23:56.208Z,98.50
2018-10-12T05:26:23.457Z,98.50
2018-10-12T05:28:50.753Z,98.90
2018-10-12T05:31:18.139Z,99.10
2018-10-12T05:33:45.502Z,99.20
2018-10-12T05:36:13.291Z,99.20
2018-10-12T05:38:40.557Z,99.10
2018-10-12T05:41:07.780Z,99.10
2018-10-12T05:43:35.032Z,99.00
2018-10-12T05:46:02.338Z,99.00
2018-10-12T05:48:41.264Z,99.10
2018-10-12T05:51:09.409Z,99.10
2018-10-12T05:53:37.020Z,99.10
2018-10-12T05:56:04.629Z,99.40
2018-10-12T05:58:32.450Z,99.60
2018-10-12T06:01:00.047Z,99.40
2018-10-12T06:03:27.296Z,99.40
2018-10-12T06:05:54.714Z,99.30
2018-10-12T06:08:22.029Z,99.40
2018-10-12T06:10:49.489Z,99.30
2018-10-12T06:13:17.036Z,99.30
2018-10-12T06:15:44.524Z,99.30
2018-10-12T06:18:12.289Z,99.30
2018-10-12T06:20:39.594Z,99.40
2018-10-12T06:23:06.865Z,99.60
2018-10-12T06:25:34.430Z,99.60
2018-10-12T06:28:01.722Z,99.60
2018-10-12T06:30:29.037Z,99.50
2018-10-12T06:32:56.343Z,99.50
2018-10-12T06:35:23.633Z,99.20
2018-10-12T06:37:50.893Z,99.20
2018-10-12T06:40:18.141Z,99.20
2018-10-12T06:42:45.438Z,99.30
2018-10-12T06:45:12.714Z,99.10
2018-10-12T06:47:40.009Z,99.10
2018-10-12T06:50:07.274Z,98.90
2018-10-12T06:52:34.830Z,98.90
2018-10-12T06:55:02.057Z,98.90
2018-10-12T06:57:29.305Z,98.80
2018-10-12T06:59:56.688Z,98.80
2018-10-12T07:02:23.910Z,98.60
2018-10-12T07:04:51.606Z,98.50
2018-10-12T07:07:18.849Z,98.50
2018-10-12T07:09:46.249Z,98.50
2018-10-12T07:12:14.191Z,98.50
2018-10-12T07:14:41.577Z,98.30
2018-10-12T07:17:08.956Z,98.50
2018-10-12T07:19:36.250Z,98.30
2018-10-12T07:22:03.769Z,98.30
2018-10-12T07:24:31.057Z,98.40
2018-10-12T07:26:58.318Z,98.20
2018-10-12T07:29:25.729Z,98.10
2018-10-12T07:31:52.985Z,98.00
2018-10-12T07:34:20.656Z,97.90
2018-10-12T07:36:48.040Z,97.50
2018-10-12T07:39:16.388Z,97.50
2018-10-12T07:41:43.774Z,97.30
2018-10-12T07:44:11.026Z,96.70
2018-10-12T07:46:38.251Z,96.60
2018-10-12T07:49:05.640Z,96.00
2018-10-12T07:51:33.076Z,95.40
2018-10-12T07:54:00.298Z,94.70
2018-10-12T07:56:27.565Z,94.20
2018-10-12T07:58:54.814Z,94.40
2018-10-12T08:01:22.106Z,93.60
2018-10-12T08:03:49.412Z,93.30
2018-10-12T08:06:16.888Z,93.00
2018-10-12T08:08:44.051Z,92.60
2018-10-12T08:11:11.281Z,92.60
2018-10-12T08:13:38.615Z,92.30
2018-10-12T08:16:05.812Z,91.80
2018-10-12T08:18:33.162Z,91.70
2018-10-12T08:21:00.449Z,91.60
2018-10-12T08:23:27.742Z,91.30
2018-10-12T08:25:55.017Z,90.90
2018-10-12T08:28:22.255Z,90.90
2018-10-12T08:30:49.499Z,91.00
2018-10-12T08:33:16.894Z,90.70
2018-10-12T08:35:44.225Z,90.40
2018-10-12T08:38:11.562Z,89.40
2018-10-12T08:40:38.833Z,88.50
2018-10-12T08:43:06.077Z,88.90
2018-10-12T08:45:33.455Z,88.50
2018-10-12T08:48:00.802Z,86.80
2018-10-12T08:50:28.066Z,86.60
2018-10-12T08:52:55.350Z,87.00
2018-10-12T08:55:22.915Z,86.60
2018-10-12T08:57:50.109Z,86.30
2018-10-12T09:00:17.362Z,85.80
2018-10-12T09:02:45.249Z,85.50
2018-10-12T09:05:12.603Z,84.90
2018-10-12T09:07:39.946Z,85.70
2018-10-12T09:10:07.529Z,86.10
2018-10-12T09:12:35.470Z,84.40
2018-10-12T09:15:02.747Z,83.60
2018-10-12T09:17:30.106Z,83.60
2018-10-12T09:19:57.950Z,84.10
2018-10-12T09:22:25.209Z,84.30
2018-10-12T09:24:52.471Z,83.60
2018-10-12T09:27:19.751Z,82.80
2018-10-12T09:29:47.331Z,82.50
2018-10-12T09:32:14.703Z,82.90
2018-10-12T09:34:42.121Z,82.90
2018-10-12T09:37:09.449Z,82.20
2018-10-12T09:39:36.813Z,82.50
2018-10-12T09:42:04.054Z,81.60
2018-10-12T09:44:31.421Z,82.50
2018-10-12T09:46:58.661Z,82.70
2018-10-12T09:49:25.889Z,83.30
2018-10-12T09:51:53.277Z,82.50
2018-10-12T09:54:20.455Z,82.50
2018-10-12T09:56:53.421Z,82.70
2018-10-12T09:59:20.617Z,82.40
2018-10-12T10:02:55.315Z,81.80
2018-10-12T10:05:22.622Z,82.30
2018-10-12T10:07:50.036Z,82.20
2018-10-12T10:10:17.169Z,82.10
2018-10-12T10:12:44.506Z,81.30
2018-10-12T10:15:11.802Z,82.10
2018-10-12T10:17:39.082Z,81.40
2018-10-12T10:20:06.453Z,80.80
2018-10-12T10:22:33.810Z,81.90
2018-10-12T10:25:01.303Z,80.20
2018-10-12T10:27:28.513Z,79.60
2018-10-12T10:29:55.833Z,79.70
2018-10-12T10:32:23.147Z,80.00
2018-10-12T10:34:50.378Z,79.30
2018-10-12T10:37:17.630Z,79.20
2018-10-12T10:39:45.225Z,79.10
2018-10-12T10:42:12.665Z,79.40
2018-10-12T10:44:39.890Z,78.50
2018-10-12T10:47:07.206Z,78.20
2018-10-12T10:49:34.488Z,78.60
2018-10-12T10:52:01.834Z,78.80
2018-10-12T10:54:29.430Z,78.70
2018-10-12T10:57:03.469Z,77.30
2018-10-12T10:59:31.525Z,78.00
2018-10-12T11:01:58.747Z,76.90
2018-10-12T11:04:26.242Z,77.50
2018-10-12T11:06:53.502Z,76.20
2018-10-12T11:09:20.949Z,75.00
2018-10-12T11:11:48.133Z,75.20
2018-10-12T11:14:15.433Z,74.80
2018-10-12T11:16:42.781Z,75.50
2018-10-12T11:19:10.190Z,74.30
2018-10-12T11:21:37.487Z,74.90
2018-10-12T11:24:04.814Z,75.60
2018-10-12T11:26:32.206Z,76.00
2018-10-12T11:28:59.481Z,75.60
2018-10-12T11:31:26.725Z,74.90
2018-10-12T11:33:53.922Z,75.70
2018-10-12T11:36:22.161Z,75.20
2018-10-12T11:38:49.481Z,74.60
2018-10-12T11:41:16.795Z,74.00
2018-10-12T11:43:44.098Z,74.00
2018-10-12T11:46:11.388Z,74.80
2018-10-12T11:48:38.805Z,74.90
2018-10-12T11:51:06.049Z,73.60
2018-10-12T11:53:33.299Z,71.90
2018-10-12T11:56:00.599Z,72.60
2018-10-12T11:58:28.064Z,73.20
2018-10-12T12:00:55.450Z,72.80
2018-10-12T12:10:28.416Z,71.80
2018-10-12T12:12:55.644Z,72.00
2018-10-12T12:15:23.044Z,71.20
2018-10-12T12:17:50.325Z,69.90
2018-10-12T12:20:17.621Z,66.80
2018-10-12T12:22:44.903Z,64.80
2018-10-12T12:25:12.499Z,60.90
2018-10-12T12:27:39.794Z,56.90
2018-10-12T12:30:07.082Z,54.80
2018-10-12T12:32:34.481Z,53.30
2018-10-12T12:35:01.992Z,51.10
2018-10-12T12:37:29.244Z,49.10
2018-10-12T12:39:56.457Z,46.30
2018-10-12T12:42:23.809Z,45.40
2018-10-12T12:44:51.106Z,43.70
2018-10-12T12:47:18.431Z,40.20
2018-10-12T12:49:45.769Z,39.70
2018-10-12T12:52:13.021Z,40.00
2018-10-12T12:54:40.356Z,39.50
2018-10-12T12:57:07.796Z,38.80
2018-10-12T12:59:35.106Z,39.70
2018-10-12T13:02:02.347Z,40.60
2018-10-12T13:04:29.688Z,41.40
2018-10-12T13:06:56.962Z,39.70
2018-10-12T13:09:24.249Z,39.40
2018-10-12T13:11:51.540Z,38.50
2018-10-12T13:14:18.987Z,38.60
2018-10-12T13:16:46.367Z,37.80
2018-10-12T13:19:13.683Z,37.70
2018-10-12T13:21:41.041Z,37.50
2018-10-12T13:24:08.236Z,39.00
2018-10-12T13:26:35.529Z,38.80
2018-10-12T13:29:03.158Z,39.30
2018-10-12T13:31:30.413Z,40.00
2018-10-12T13:33:57.662Z,39.30
2018-10-12T13:36:24.957Z,38.80
2018-10-12T13:38:52.287Z,38.80
2018-10-12T13:41:19.553Z,39.00
2018-10-12T13:43:46.869Z,38.50
2018-10-12T13:46:14.116Z,38.40
2018-10-12T13:48:41.433Z,38.10
2018-10-12T13:51:08.741Z,38.50
2018-10-12T13:53:35.981Z,38.90
2018-10-12T13:56:03.354Z,38.20
2018-10-12T13:58:30.577Z,38.80
2018-10-12T14:01:03.069Z,39.00
2018-10-12T14:03:35.094Z,38.20
2018-10-12T14:06:08.250Z,37.60
2018-10-12T14:08:36.106Z,37.70
2018-10-12T14:11:06.348Z,37.40
2018-10-12T14:13:33.821Z,37.90
2018-10-12T14:16:01.035Z,37.60
2018-10-12T14:18:28.553Z,38.10
2018-10-12T14:20:55.905Z,38.00
2018-10-12T14:23:23.085Z,37.50
2018-10-12T14:25:50.350Z,37.20
2018-10-12T14:28:17.612Z,36.50
2018-10-12T14:30:45.042Z,36.30
2018-10-12T14:33:12.246Z,36.50
2018-10-12T14:35:39.919Z,36.80
2018-10-12T14:38:07.240Z,36.50
2018-10-12T14:40:34.458Z,36.30
2018-10-12T14:43:01.776Z,36.60
2018-10-12T14:45:35.680Z,36.10
2018-10-12T14:48:09.664Z,36.60
2018-10-12T14:50:37.262Z,36.70
2018-10-12T14:53:04.631Z,36.40
2018-10-12T14:55:32.179Z,36.70
2018-10-12T14:57:59.513Z,36.70
2018-10-12T15:00:26.755Z,36.30
2018-10-12T15:02:53.945Z,36.30
2018-10-12T15:05:21.247Z,36.40
2018-10-12T15:07:48.429Z,37.00
2018-10-12T15:10:15.647Z,36.60
2018-10-12T15:12:42.863Z,37.80
2018-10-12T15:15:18.181Z,38.10
2018-10-12T15:17:46.093Z,38.10
2018-10-12T15:20:13.353Z,39.30
2018-10-12T15:22:44.903Z,40.30
2018-10-12T15:25:15.359Z,41.30
2018-10-12T15:27:43.125Z,41.70
2018-10-12T15:30:11.168Z,41.50
2018-10-12T15:32:38.415Z,42.00
2018-10-12T15:35:06.565Z,41.60
2018-10-12T15:37:34.231Z,41.60
2018-10-12T15:40:01.743Z,41.80
2018-10-12T15:42:29.146Z,42.40
2018-10-12T15:44:56.438Z,42.50
2018-10-12T15:47:23.988Z,43.10
2018-10-12T15:49:51.347Z,44.00
2018-10-12T15:52:18.619Z,45.90
2018-10-12T15:54:46.055Z,47.30
2018-10-12T15:57:17.244Z,49.40
2018-10-12T15:59:44.964Z,51.30
2018-10-12T16:02:12.216Z,52.60
2018-10-12T16:04:39.574Z,54.50
2018-10-12T16:07:06.773Z,56.20
2018-10-12T16:09:34.114Z,58.00
2018-10-12T16:12:01.326Z,59.10
2018-10-12T16:14:28.586Z,60.00
2018-10-12T16:16:55.922Z,61.60
2018-10-12T16:19:23.121Z,63.50
2018-10-12T16:21:50.333Z,65.10
2018-10-12T16:24:17.531Z,66.60
2018-10-12T16:26:44.732Z,68.00
2018-10-12T16:29:12.031Z,69.60
2018-10-12T16:31:39.242Z,71.60
2018-10-12T16:34:06.611Z,72.60
2018-10-12T16:36:33.895Z,73.70
2018-10-12T16:39:01.094Z,75.20
2018-10-12T16:41:28.553Z,76.40
2018-10-12T16:43:55.793Z,78.00
2018-10-12T16:46:23.207Z,78.50
2018-10-12T16:48:50.553Z,79.10
2018-10-12T16:51:17.782Z,80.10
2018-10-12T16:53:45.146Z,80.80
2018-10-12T16:56:12.350Z,81.60
2018-10-12T16:58:39.729Z,82.30
2018-10-12T17:01:07.221Z,83.00
2018-10-12T17:03:34.492Z,83.90
2018-10-12T17:06:01.802Z,84.00
2018-10-12T17:08:29.014Z,84.90
2018-10-12T17:10:56.312Z,85.50
2018-10-12T17:13:23.525Z,85.90
2018-10-12T17:15:50.829Z,86.10
2018-10-12T17:18:18.075Z,86.70
2018-10-12T17:20:45.265Z,87.00
2018-10-12T17:23:12.562Z,87.10
2018-10-12T17:25:39.845Z,87.70
2018-10-12T17:28:07.061Z,87.90
2018-10-12T17:30:34.491Z,88.40
2018-10-12T17:33:02.175Z,88.70
2018-10-12T17:35:29.386Z,89.10
2018-10-12T17:37:56.645Z,89.30
2018-10-12T17:40:23.945Z,89.10
2018-10-12T17:42:51.138Z,90.00
2018-10-12T17:47:56.284Z,90.10
2018-10-12T17:50:23.742Z,89.90
2018-10-12T17:52:51.054Z,89.80
2018-10-12T17:55:18.218Z,89.80
2018-10-12T17:57:45.438Z,89.90
2018-10-12T18:00:13.103Z,90.00
2018-10-12T18:02:40.414Z,90.10
2018-10-12T18:05:08.198Z,90.30
2018-10-12T18:07:35.426Z,90.20
2018-10-12T18:10:02.834Z,90.50
2018-10-12T18:12:30.090Z,90.50
2018-10-12T18:14:57.313Z,90.80
2018-10-12T18:17:24.622Z,90.60
2018-10-12T18:19:51.941Z,90.80
2018-10-12T18:22:19.132Z,90.80
2018-10-12T18:24:46.369Z,90.80
2018-10-12T18:27:13.653Z,91.00
2018-10-12T18:29:40.860Z,91.20
2018-10-12T18:32:08.160Z,91.40
2018-10-12T18:34:35.437Z,91.70
2018-10-12T18:37:02.750Z,91.80
2018-10-12T18:39:29.863Z,92.20
2018-10-12T18:41:57.097Z,92.10
2018-10-12T18:44:24.303Z,92.40
2018-10-12T18:46:51.498Z,92.40
2018-10-12T18:49:18.715Z,92.50
2018-10-12T18:51:45.941Z,92.60
2018-10-12T18:54:13.267Z,92.80
2018-10-12T18:56:40.485Z,92.50
2018-10-12T18:59:08.214Z,92.50
2018-10-12T19:01:35.510Z,92.30
2018-10-12T19:04:02.705Z,92.30
2018-10-12T19:06:30.108Z,92.30
2018-10-12T19:08:57.531Z,92.20
2018-10-12T19:11:25.195Z,92.20
2018-10-12T19:13:52.737Z,92.20
2018-10-12T19:16:20.083Z,92.10
2018-10-12T19:18:48.581Z,92.00
2018-10-12T19:21:16.703Z,91.80
2018-10-12T19:23:43.957Z,91.70
2018-10-12T19:26:11.814Z,91.70
2018-10-12T19:28:39.012Z,91.50
2018-10-12T19:31:07.189Z,91.80
2018-10-12T19:33:35.080Z,91.50
2018-10-12T19:36:02.366Z,91.50
2018-10-12T19:38:29.997Z,91.60
2018-10-12T19:40:57.201Z,91.50
2018-10-12T19:43:24.402Z,91.50
2018-10-12T19:45:51.589Z,91.50
2018-10-12T19:48:18.785Z,91.50
2018-10-12T19:50:46.003Z,91.60
2018-10-12T19:53:13.216Z,91.60
2018-10-12T19:55:40.450Z,91.70
2018-10-12T19:58:07.754Z,91.80
2018-10-12T20:00:34.996Z,91.90
2018-10-12T20:03:02.203Z,92.00
2018-10-12T20:05:29.456Z,92.20
2018-10-12T20:07:56.655Z,92.40
2018-10-12T20:10:23.871Z,92.40
2018-10-12T20:12:51.397Z,92.60
2018-10-12T20:15:18.609Z,92.80
2018-10-12T20:17:46.064Z,92.80
2018-10-12T20:20:13.248Z,93.10
2018-10-12T20:22:40.434Z,93.20
2018-10-12T20:25:07.649Z,93.30
2018-10-12T20:27:34.945Z,93.40
2018-10-12T20:30:02.180Z,93.40
2018-10-12T20:32:29.372Z,93.40
2018-10-12T20:34:56.669Z,93.50
2018-10-12T20:37:23.861Z,93.60
2018-10-12T20:39:51.105Z,93.70
2018-10-12T20:42:18.386Z,93.80
2018-10-12T20:44:45.613Z,93.90
2018-10-12T20:47:12.822Z,94.10
2018-10-12T20:49:40.109Z,94.20
2018-10-12T20:52:07.347Z,94.30
2018-10-12T20:54:34.533Z,94.40
2018-10-12T20:57:01.821Z,94.50
2018-10-12T20:59:29.083Z,94.50
2018-10-12T21:01:56.469Z,94.70
2018-10-12T21:04:23.857Z,94.80
2018-10-12T21:06:51.041Z,95.10
2018-10-12T21:09:18.220Z,95.10
2018-10-12T21:11:45.455Z,95.10
2018-10-12T21:14:12.710Z,95.10
2018-10-12T21:16:39.908Z,95.20
2018-10-12T21:19:07.193Z,95.20
2018-10-12T21:21:34.445Z,95.40
2018-10-12T21:24:01.661Z,95.40
2018-10-12T21:26:28.909Z,95.40
2018-10-12T21:28:56.105Z,95.50
2018-10-12T21:31:23.295Z,95.60
2018-10-12T21:33:50.523Z,95.90
2018-10-12T21:36:17.721Z,95.80
2018-10-12T21:38:44.970Z,95.90
2018-10-12T21:41:12.196Z,96.10
2018-10-12T21:43:39.394Z,96.10
2018-10-12T21:46:06.654Z,96.20
2018-10-12T21:48:34.025Z,96.40
2018-10-12T21:51:01.198Z,96.30
2018-10-12T21:53:28.430Z,96.50
2018-10-12T21:55:55.865Z,96.40
2018-10-12T21:58:23.102Z,96.80
2018-10-12T22:00:56.126Z,96.70
2018-10-12T22:03:23.416Z,96.70
2018-10-12T22:05:50.630Z,97.00
2018-10-12T22:08:23.688Z,97.10
2018-10-12T22:10:50.942Z,97.20
2018-10-12T22:13:18.291Z,97.10
2018-10-12T22:15:45.616Z,97.20
2018-10-12T22:18:12.969Z,97.10
2018-10-12T22:20:40.213Z,97.00
2018-10-12T22:23:07.445Z,97.20
2018-10-12T22:25:34.894Z,97.10
2018-10-12T22:28:02.185Z,97.20
2018-10-12T22:30:29.467Z,97.20
2018-10-12T22:32:56.749Z,97.40
2018-10-12T22:35:23.976Z,97.50
2018-10-12T22:37:51.207Z,97.60
2018-10-12T22:40:18.421Z,97.70
2018-10-12T22:42:45.963Z,97.70
2018-10-12T22:45:13.169Z,97.80
2018-10-12T22:47:40.549Z,97.80
2018-10-12T22:50:07.798Z,97.70
2018-10-12T22:52:35.169Z,98.00
2018-10-12T22:55:02.549Z,97.80
2018-10-12T22:57:29.852Z,97.80
2018-10-12T22:59:57.042Z,98.00
2018-10-12T23:02:24.313Z,97.80
2018-10-12T23:04:51.646Z,98.00
2018-10-12T23:07:18.953Z,98.20
2018-10-12T23:09:46.226Z,98.20
2018-10-12T23:12:13.457Z,98.00
2018-10-12T23:14:40.833Z,98.00
2018-10-12T23:17:08.118Z,98.30
2018-10-12T23:19:35.437Z,98.40
2018-10-12T23:22:02.721Z,98.50
2018-10-12T23:24:30.078Z,98.50
2018-10-12T23:26:57.529Z,98.70
2018-10-12T23:29:24.833Z,99.00
2018-10-12T23:31:52.099Z,98.80
2018-10-12T23:34:19.400Z,98.50
2018-10-12T23:36:46.858Z,98.60
2018-10-12T23:39:14.163Z,98.40
2018-10-12T23:41:41.729Z,98.90
2018-10-12T23:44:09.302Z,99.00
2018-10-12T23:46:36.758Z,99.20
2018-10-12T23:49:04.173Z,99.40
2018-10-12T23:51:31.523Z,99.40
2018-10-12T23:53:58.892Z,99.50
2018-10-12T23:56:26.222Z,99.60
2018-10-12T23:58:53.677Z,99.50
